Time;durP1;ratioP1;P1;durP2;ratioP2;P2;SDS_P1;SDS_P2;PMS_P1;PMS_P2;Temp;Humidity;BMP_temperature;BMP_pressure;BME280_temperature;BME280_humidity;BME280_pressure;Samples;Min_cycle;Max_cycle;Signal;HPM_P1;HPM_P2
2021/08/12 00:01:51;;;;;;;6.25;2.47;;;16.00;87.10;;;;;;6243848;22;20165;-78
2021/08/12 00:04:19;;;;;;;4.78;2.15;;;16.10;87.20;;;;;;6271248;22;20020;-79
2021/08/12 00:06:47;;;;;;;5.18;2.17;;;16.00;87.00;;;;;;6247073;23;20034;-79
2021/08/12 00:09:19;;;;;;;5.07;2.15;;;16.10;87.10;;;;;;6250674;23;20192;-78
2021/08/12 00:11:53;;;;;;;7.55;2.53;;;16.10;87.00;;;;;;6249876;23;20315;-79
2021/08/12 00:14:21;;;;;;;6.95;2.45;;;16.10;87.00;;;;;;6251742;22;20020;-78
2021/08/12 00:16:49;;;;;;;8.10;2.95;;;16.10;86.90;;;;;;6251792;22;20023;-79
2021/08/12 00:19:16;;;;;;;7.38;2.65;;;16.10;87.10;;;;;;6250273;23;20028;-79
2021/08/12 00:21:43;;;;;;;6.05;2.58;;;16.00;87.20;;;;;;6255285;23;20024;-79
2021/08/12 00:24:11;;;;;;;6.32;2.63;;;16.00;87.10;;;;;;6255858;23;20074;-79
2021/08/12 00:26:38;;;;;;;5.82;2.92;;;16.00;87.20;;;;;;6255912;23;20032;-78
2021/08/12 00:29:05;;;;;;;6.85;2.90;;;16.10;87.10;;;;;;6256275;22;20065;-79
2021/08/12 00:31:35;;;;;;;6.28;2.58;;;16.10;86.90;;;;;;6252587;23;20217;-78
2021/08/12 00:34:02;;;;;;;8.82;2.53;;;16.00;86.90;;;;;;6278220;22;20354;-79
2021/08/12 00:36:30;;;;;;;6.55;2.63;;;16.00;86.80;;;;;;6252112;23;20020;-78
2021/08/12 00:39:00;;;;;;;5.82;2.60;;;15.90;86.90;;;;;;6253076;22;20020;-79
2021/08/12 00:41:36;;;;;;;5.75;1.95;;;15.90;87.00;;;;;;6253958;23;20027;-79
2021/08/12 00:44:07;;;;;;;4.32;2.17;;;15.90;86.90;;;;;;6251665;22;20024;-78
2021/08/12 00:46:37;;;;;;;9.15;2.72;;;15.80;87.20;;;;;;6249347;23;20028;-79
2021/08/12 00:49:05;;;;;;;7.55;2.63;;;15.80;87.20;;;;;;6254672;23;20035;-79
2021/08/12 00:51:36;;;;;;;5.93;2.42;;;15.70;87.40;;;;;;6252334;23;20028;-79
2021/08/12 00:54:05;;;;;;;4.82;2.28;;;15.60;87.60;;;;;;6249794;23;20024;-79
2021/08/12 00:56:33;;;;;;;7.35;2.60;;;15.50;88.00;;;;;;6252234;23;20028;-79
2021/08/12 00:59:01;;;;;;;6.20;2.17;;;15.50;88.20;;;;;;6254481;22;20315;-79
2021/08/12 01:01:36;;;;;;;4.50;1.98;;;15.50;88.20;;;;;;6247477;23;20063;-79
2021/08/12 01:04:04;;;;;;;5.55;2.15;;;15.50;88.20;;;;;;6256598;22;20032;-79
2021/08/12 01:06:33;;;;;;;7.95;2.15;;;15.50;88.10;;;;;;6255555;23;20043;-79
2021/08/12 01:09:07;;;;;;;7.18;2.25;;;15.50;88.00;;;;;;6252914;23;20093;-80
2021/08/12 01:11:38;;;;;;;5.05;1.98;;;15.50;88.10;;;;;;6253317;23;20028;-79
2021/08/12 01:14:18;;;;;;;6.32;2.20;;;15.40;88.10;;;;;;6254006;22;20016;-78
2021/08/12 01:16:55;;;;;;;3.95;1.92;;;15.40;88.20;;;;;;6253225;23;20417;-79
2021/08/12 01:19:49;;;;;;;4.15;1.58;;;15.40;88.10;;;;;;6254601;23;20028;-79
2021/08/12 01:22:28;;;;;;;7.95;2.75;;;15.40;88.30;;;;;;5294999;22;10001046;-79
2021/08/12 01:25:00;;;;;;;10.15;2.35;;;15.40;88.30;;;;;;2153893;23;10002035;-78
2021/08/12 01:27:36;;;;;;;6.18;2.30;;;15.40;88.10;;;;;;6251778;23;20082;-78
2021/08/12 01:30:08;;;;;;;6.53;2.65;;;15.30;88.30;;;;;;6249995;23;20108;-78
2021/08/12 01:32:48;;;;;;;4.18;2.10;;;15.30;88.40;;;;;;6250098;23;20035;-79
2021/08/12 01:35:20;;;;;;;6.10;2.35;;;15.20;88.40;;;;;;6250344;23;20027;-79
2021/08/12 01:37:52;;;;;;;7.85;2.58;;;15.20;88.50;;;;;;6254350;23;20039;-80
2021/08/12 01:40:22;;;;;;;6.80;2.67;;;15.10;88.90;;;;;;6255062;23;20023;-80
2021/08/12 01:42:51;;;;;;;6.25;2.40;;;15.10;88.90;;;;;;6279052;22;20200;-79
2021/08/12 01:45:20;;;;;;;6.97;2.53;;;15.10;88.90;;;;;;6251623;23;20024;-79
2021/08/12 01:47:49;;;;;;;5.53;2.30;;;15.10;88.90;;;;;;6253060;23;20020;-79
2021/08/12 01:50:20;;;;;;;6.65;2.70;;;15.10;88.90;;;;;;6253933;23;20020;-79
2021/08/12 01:52:50;;;;;;;5.28;2.00;;;15.10;89.00;;;;;;6251926;23;20024;-78
2021/08/12 01:55:21;;;;;;;6.63;2.50;;;15.10;88.90;;;;;;6253399;23;20016;-79
2021/08/12 01:57:50;;;;;;;4.28;1.83;;;15.00;89.00;;;;;;6251121;23;20066;-79
2021/08/12 02:00:18;;;;;;;5.47;2.15;;;15.00;89.10;;;;;;6247541;23;20051;-79
2021/08/12 02:02:50;;;;;;;6.97;2.67;;;15.00;89.10;;;;;;6253272;23;20031;-79
2021/08/12 02:05:19;;;;;;;4.55;2.10;;;15.00;89.10;;;;;;6254870;22;20067;-78
2021/08/12 02:07:53;;;;;;;5.72;2.33;;;14.90;89.10;;;;;;6253667;22;20024;-79
2021/08/12 02:10:21;;;;;;;4.97;2.38;;;14.90;89.30;;;;;;6253677;23;20008;-78
2021/08/12 02:12:48;;;;;;;6.85;2.40;;;14.90;89.00;;;;;;6253208;22;20032;-78
2021/08/12 02:15:16;;;;;;;6.78;2.17;;;14.90;89.20;;;;;;6251557;23;20016;-79
2021/08/12 02:17:44;;;;;;;7.50;2.33;;;14.90;89.40;;;;;;6277061;22;20046;-79
2021/08/12 02:20:15;;;;;;;6.00;2.65;;;14.90;89.40;;;;;;6254848;22;20207;-79
2021/08/12 02:22:49;;;;;;;5.43;2.38;;;14.90;89.10;;;;;;6278615;22;20043;-79
2021/08/12 02:25:26;;;;;;;4.28;1.90;;;14.90;89.00;;;;;;6253433;23;20075;-79
2021/08/12 02:27:56;;;;;;;4.25;1.95;;;14.80;89.10;;;;;;6254945;23;20028;-80
2021/08/12 02:30:24;;;;;;;4.20;2.10;;;14.80;89.20;;;;;;6254617;22;20067;-80
2021/08/12 02:32:53;;;;;;;4.28;1.98;;;14.80;89.10;;;;;;6253909;23;20332;-80
2021/08/12 02:35:22;;;;;;;5.25;2.17;;;14.80;89.30;;;;;;6254295;23;20066;-80
2021/08/12 02:37:52;;;;;;;5.63;1.98;;;14.80;89.30;;;;;;6254642;22;20024;-80
2021/08/12 02:40:22;;;;;;;5.18;2.28;;;14.80;89.20;;;;;;6254954;23;20258;-80
2021/08/12 02:42:51;;;;;;;7.60;2.30;;;14.70;89.20;;;;;;6254285;22;20099;-79
2021/08/12 02:45:19;;;;;;;5.53;2.13;;;14.70;89.30;;;;;;6254126;23;20028;-78
2021/08/12 02:47:48;;;;;;;5.45;2.33;;;14.70;89.20;;;;;;6252018;23;20192;-79
2021/08/12 02:50:16;;;;;;;5.72;2.42;;;14.70;89.20;;;;;;6253665;23;20034;-78
2021/08/12 02:52:45;;;;;;;7.18;2.80;;;14.60;89.40;;;;;;6250733;23;20020;-80
2021/08/12 02:55:16;;;;;;;5.25;2.30;;;14.60;89.40;;;;;;6253421;22;20027;-78
2021/08/12 02:57:44;;;;;;;4.43;2.40;;;14.60;89.40;;;;;;6254442;23;20310;-78
2021/08/12 03:00:12;;;;;;;5.32;2.38;;;14.60;89.50;;;;;;6247924;23;20188;-78
2021/08/12 03:02:47;;;;;;;9.80;2.78;;;14.60;89.40;;;;;;6250807;23;20026;-79
2021/08/12 03:05:18;;;;;;;4.70;1.95;;;14.60;89.50;;;;;;6251337;23;20016;-78
2021/08/12 03:07:47;;;;;;;8.20;3.08;;;14.60;89.50;;;;;;6251748;23;20193;-79
2021/08/12 03:10:20;;;;;;;5.43;2.35;;;14.60;89.40;;;;;;6274839;22;20334;-78
2021/08/12 03:12:50;;;;;;;4.72;2.25;;;14.60;89.10;;;;;;6251902;23;20028;-79
2021/08/12 03:15:20;;;;;;;5.47;2.08;;;14.60;89.20;;;;;;6251562;23;20024;-79
2021/08/12 03:17:48;;;;;;;4.32;1.55;;;14.60;88.90;;;;;;6250429;22;20070;-79
2021/08/12 03:20:15;;;;;;;4.78;2.22;;;14.50;89.10;;;;;;6279218;22;20066;-80
2021/08/12 03:22:43;;;;;;;4.90;1.60;;;14.50;89.20;;;;;;6252364;23;20204;-80
2021/08/12 03:25:11;;;;;;;5.25;2.25;;;14.50;89.30;;;;;;6252846;23;20020;-79
2021/08/12 03:27:44;;;;;;;5.80;2.28;;;14.50;89.20;;;;;;6253150;23;20020;-78
2021/08/12 03:30:13;;;;;;;6.25;2.08;;;14.50;89.40;;;;;;6253820;23;20405;-80
2021/08/12 03:32:41;;;;;;;5.88;2.25;;;14.50;89.20;;;;;;6252160;23;20027;-79
2021/08/12 03:35:09;;;;;;;5.50;2.30;;;14.50;89.30;;;;;;6254313;23;20020;-80
2021/08/12 03:37:37;;;;;;;5.10;1.90;;;14.30;89.50;;;;;;6252492;23;20020;-78
2021/08/12 03:40:05;;;;;;;6.20;2.67;;;14.30;89.50;;;;;;6253294;23;20035;-79
2021/08/12 03:42:33;;;;;;;7.47;2.13;;;14.30;89.50;;;;;;6278466;22;20351;-79
2021/08/12 03:45:01;;;;;;;7.63;2.42;;;14.40;89.50;;;;;;6278745;22;20078;-80
2021/08/12 03:47:35;;;;;;;5.05;2.15;;;14.30;89.50;;;;;;6251949;23;20197;-79
2021/08/12 03:50:03;;;;;;;5.97;2.45;;;14.30;89.60;;;;;;6257942;22;20028;-78
2021/08/12 03:52:30;;;;;;;6.13;2.08;;;14.30;89.50;;;;;;6255621;23;20016;-79
2021/08/12 03:54:58;;;;;;;8.40;2.75;;;14.30;89.60;;;;;;6255266;23;20016;-78
2021/08/12 03:57:26;;;;;;;5.35;2.75;;;14.30;89.60;;;;;;6254264;23;20219;-78
2021/08/12 03:59:53;;;;;;;5.38;1.98;;;14.40;89.50;;;;;;6253758;23;20047;-79
2021/08/12 04:02:22;;;;;;;7.05;2.58;;;14.40;89.30;;;;;;6247215;23;20020;-79
2021/08/12 04:04:49;;;;;;;6.47;2.67;;;14.40;89.30;;;;;;6254640;23;20023;-79
2021/08/12 04:07:17;;;;;;;6.18;2.55;;;14.30;89.30;;;;;;6254401;22;20024;-79
2021/08/12 04:09:45;;;;;;;5.38;2.55;;;14.30;89.40;;;;;;6255826;23;20103;-80
2021/08/12 04:12:13;;;;;;;7.47;2.65;;;14.30;89.60;;;;;;6254029;23;20020;-80
2021/08/12 04:14:40;;;;;;;4.53;2.13;;;14.30;89.80;;;;;;6256933;23;20025;-79
2021/08/12 04:17:07;;;;;;;6.32;2.33;;;14.30;89.80;;;;;;6254696;23;20026;-78
2021/08/12 04:19:36;;;;;;;4.82;2.30;;;14.30;89.40;;;;;;6255569;22;20342;-79
2021/08/12 04:22:04;;;;;;;5.53;2.08;;;14.40;89.40;;;;;;6257255;23;20016;-79
2021/08/12 04:24:32;;;;;;;5.07;2.17;;;14.30;89.40;;;;;;6258615;22;20075;-78
2021/08/12 04:26:59;;;;;;;7.55;2.47;;;14.40;89.40;;;;;;6255418;23;20070;-80
2021/08/12 04:29:27;;;;;;;6.88;2.90;;;14.40;89.30;;;;;;6256785;23;20095;-80
2021/08/12 04:31:54;;;;;;;4.57;2.42;;;14.40;89.20;;;;;;6253586;23;20039;-80
2021/08/12 04:34:22;;;;;;;6.70;2.55;;;14.50;89.20;;;;;;6255919;23;20016;-79
2021/08/12 04:36:51;;;;;;;7.80;3.42;;;14.50;89.10;;;;;;6253908;23;20391;-79
2021/08/12 04:39:18;;;;;;;6.05;2.17;;;14.40;89.10;;;;;;6256040;22;20031;-79
2021/08/12 04:41:46;;;;;;;6.40;2.85;;;14.40;89.20;;;;;;6253958;23;20079;-80
2021/08/12 04:44:13;;;;;;;6.63;2.30;;;14.50;88.90;;;;;;6252214;22;20406;-79
2021/08/12 04:46:41;;;;;;;6.65;2.45;;;14.50;89.00;;;;;;6252322;22;20043;-80
2021/08/12 04:49:10;;;;;;;6.38;1.98;;;14.60;88.80;;;;;;6254331;23;20023;-78
2021/08/12 04:51:39;;;;;;;5.75;2.63;;;14.60;88.70;;;;;;6253103;23;20048;-79
2021/08/12 04:54:08;;;;;;;10.60;2.35;;;14.60;89.00;;;;;;6251273;23;20202;-80
2021/08/12 04:56:36;;;;;;;7.72;2.50;;;14.60;88.50;;;;;;6254277;23;20035;-80
2021/08/12 04:59:04;;;;;;;5.50;2.42;;;14.70;88.50;;;;;;6253518;23;20027;-80
2021/08/12 05:01:33;;;;;;;6.15;2.45;;;14.70;88.40;;;;;;6249506;23;20343;-79
2021/08/12 05:04:00;;;;;;;8.25;2.63;;;14.80;88.40;;;;;;6253380;23;20066;-79
2021/08/12 05:06:29;;;;;;;7.75;3.65;;;14.90;88.20;;;;;;6254746;23;20035;-79
2021/08/12 05:08:56;;;;;;;5.32;2.53;;;14.90;88.20;;;;;;6252004;23;20022;-78
2021/08/12 05:11:25;;;;;;;6.15;2.60;;;15.00;87.90;;;;;;6276773;22;20035;-79
2021/08/12 05:13:53;;;;;;;6.18;2.55;;;15.00;87.90;;;;;;6253241;23;20026;-80
2021/08/12 05:16:21;;;;;;;11.45;2.75;;;15.10;87.80;;;;;;6251635;23;20064;-79
2021/08/12 05:18:48;;;;;;;5.78;2.28;;;15.20;87.70;;;;;;6253106;23;20028;-80
2021/08/12 05:21:16;;;;;;;6.25;2.65;;;15.30;87.70;;;;;;6254177;23;20027;-80
2021/08/12 05:23:44;;;;;;;5.10;2.20;;;15.30;87.30;;;;;;6254738;23;20079;-79
2021/08/12 05:26:12;;;;;;;5.30;2.30;;;15.40;87.40;;;;;;6254678;23;20024;-79
2021/08/12 05:28:41;;;;;;;7.18;2.40;;;15.40;87.30;;;;;;6254574;23;20047;-78
2021/08/12 05:31:08;;;;;;;6.53;2.50;;;15.60;87.00;;;;;;6253820;23;20020;-79
2021/08/12 05:33:36;;;;;;;7.38;2.50;;;15.60;86.80;;;;;;6252926;23;20083;-78
2021/08/12 05:36:04;;;;;;;8.05;2.67;;;15.60;86.70;;;;;;6280062;22;20051;-79
2021/08/12 05:38:32;;;;;;;6.13;2.05;;;15.70;86.30;;;;;;6277759;22;20035;-79
2021/08/12 05:41:02;;;;;;;7.03;2.45;;;15.90;86.30;;;;;;6256469;23;20075;-79
2021/08/12 05:43:30;;;;;;;6.70;2.22;;;15.90;86.10;;;;;;6255282;22;20046;-79
2021/08/12 05:45:59;;;;;;;4.70;2.00;;;16.00;86.00;;;;;;6253324;23;20024;-78
2021/08/12 05:48:26;;;;;;;5.25;2.30;;;16.10;85.40;;;;;;6253291;23;20046;-79
2021/08/12 05:50:55;;;;;;;5.55;2.35;;;16.10;85.30;;;;;;6255327;23;20015;-78
2021/08/12 05:53:23;;;;;;;4.78;2.08;;;16.20;85.20;;;;;;6254317;22;20188;-79
2021/08/12 05:55:51;;;;;;;6.78;2.47;;;16.40;85.10;;;;;;6274225;22;20311;-79
2021/08/12 05:58:18;;;;;;;6.07;2.13;;;16.60;84.70;;;;;;6253031;23;20196;-79
2021/08/12 06:00:49;;;;;;;4.72;2.08;;;16.60;84.50;;;;;;6245073;23;20028;-79
2021/08/12 06:03:18;;;;;;;6.75;2.40;;;16.80;84.40;;;;;;6253854;22;20024;-79
2021/08/12 06:05:45;;;;;;;4.33;2.30;;;16.80;84.00;;;;;;6275777;22;20031;-79
2021/08/12 06:08:14;;;;;;;4.65;2.08;;;16.90;84.30;;;;;;6252592;23;20028;-78
2021/08/12 06:10:42;;;;;;;7.28;2.20;;;17.10;83.90;;;;;;6252327;23;20081;-79
2021/08/12 06:13:10;;;;;;;7.15;2.50;;;17.30;83.10;;;;;;6252350;23;20078;-78
2021/08/12 06:15:38;;;;;;;6.28;2.33;;;17.40;82.90;;;;;;6253899;22;20219;-79
2021/08/12 06:18:11;;;;;;;6.55;2.15;;;17.50;82.60;;;;;;6250523;23;20020;-79
2021/08/12 06:20:42;;;;;;;8.27;2.50;;;17.60;82.10;;;;;;6252158;23;20255;-79
2021/08/12 06:23:11;;;;;;;4.95;2.35;;;17.70;81.50;;;;;;6275565;22;20088;-79
2021/08/12 06:25:40;;;;;;;;;;;17.70;81.40;;;;;;6276855;22;20067;-78
2021/08/12 06:28:10;;;;;;;5.88;2.33;;;17.70;81.60;;;;;;6276265;22;19919;-78
2021/08/12 06:30:38;;;;;;;6.25;2.67;;;17.70;81.60;;;;;;6249164;23;20020;-78
2021/08/12 06:33:07;;;;;;;6.30;2.28;;;17.80;81.50;;;;;;6250101;22;20199;-79
2021/08/12 06:35:36;;;;;;;7.80;3.47;;;17.80;81.80;;;;;;6249028;23;20024;-78
2021/08/12 06:38:08;;;;;;;6.90;3.17;;;17.80;81.50;;;;;;6250202;23;20319;-78
2021/08/12 06:40:36;;;;;;;4.82;2.10;;;17.90;81.80;;;;;;6254035;22;20066;-77
2021/08/12 06:43:03;;;;;;;6.75;2.22;;;18.10;80.60;;;;;;6273142;22;20222;-78
2021/08/12 06:45:44;;;;;;;5.65;2.53;;;18.30;80.10;;;;;;6248666;23;20095;-78
2021/08/12 06:48:12;;;;;;;19.58;6.30;;;18.40;80.00;;;;;;6275857;22;20379;-78
2021/08/12 06:50:39;;;;;;;6.70;2.58;;;18.50;79.70;;;;;;6247702;23;20096;-79
2021/08/12 06:53:09;;;;;;;7.85;3.30;;;18.80;79.20;;;;;;6246866;23;20028;-79
2021/08/12 06:55:37;;;;;;;4.93;2.05;;;19.00;78.50;;;;;;6248615;23;20167;-79
2021/08/12 06:58:05;;;;;;;6.95;2.25;;;19.40;77.40;;;;;;6245968;23;20032;-79
2021/08/12 07:00:32;;;;;;;6.70;2.70;;;19.80;76.70;;;;;;6245156;22;20020;-78
2021/08/12 07:03:00;;;;;;;6.28;2.35;;;20.10;75.70;;;;;;6249994;23;20028;-78
2021/08/12 07:05:28;;;;;;;6.25;2.78;;;20.30;75.20;;;;;;6250127;23;20016;-79
2021/08/12 07:07:56;;;;;;;7.07;2.55;;;20.50;73.90;;;;;;6252164;23;20077;-80
2021/08/12 07:10:25;;;;;;;6.55;2.55;;;20.60;73.10;;;;;;6251282;23;20234;-80
2021/08/12 07:12:53;;;;;;;6.68;2.35;;;20.70;72.60;;;;;;6249501;23;20059;-78
2021/08/12 07:15:20;;;;;;;6.55;2.42;;;20.80;73.10;;;;;;6275763;22;20016;-81
2021/08/12 07:17:48;;;;;;;4.43;2.30;;;21.00;72.30;;;;;;6249481;23;20085;-79
2021/08/12 07:20:18;;;;;;;4.65;2.05;;;21.10;71.90;;;;;;6250382;23;20340;-78
2021/08/12 07:22:46;;;;;;;8.85;2.85;;;21.10;71.60;;;;;;6251422;22;20028;-79
2021/08/12 07:25:15;;;;;;;9.02;2.38;;;21.30;71.00;;;;;;6251893;23;20043;-79
2021/08/12 07:27:48;;;;;;;5.97;2.53;;;21.40;71.00;;;;;;6253342;23;20073;-79
2021/08/12 07:30:17;;;;;;;6.85;2.47;;;21.50;70.60;;;;;;6250944;23;20047;-79
2021/08/12 07:32:44;;;;;;;6.82;2.53;;;21.50;70.50;;;;;;6276969;22;20200;-79
2021/08/12 07:35:13;;;;;;;5.03;2.75;;;21.70;70.20;;;;;;6253112;23;20076;-78
2021/08/12 07:37:40;;;;;;;5.90;2.45;;;21.60;69.80;;;;;;6253928;22;20039;-80
2021/08/12 07:40:09;;;;;;;5.65;2.45;;;21.90;70.50;;;;;;6252308;23;20027;-78
2021/08/12 07:42:36;;;;;;;6.32;2.53;;;22.10;69.40;;;;;;6250091;22;20048;-79
2021/08/12 07:45:07;;;;;;;4.70;2.25;;;22.00;70.30;;;;;;6249491;23;20028;-78
2021/08/12 07:47:34;;;;;;;7.75;2.38;;;22.10;69.90;;;;;;6255450;22;20024;-79
2021/08/12 07:50:08;;;;;;;5.05;2.67;;;22.20;70.10;;;;;;6252705;23;20103;-79
2021/08/12 07:52:39;;;;;;;11.77;3.13;;;22.20;69.10;;;;;;6252897;23;20027;-78
2021/08/12 07:55:08;;;;;;;9.38;3.10;;;22.20;70.10;;;;;;6254772;23;20086;-79
2021/08/12 07:57:35;;;;;;;5.57;2.25;;;22.20;69.80;;;;;;6253612;23;20012;-79
2021/08/12 08:00:07;;;;;;;7.28;2.67;;;22.20;69.50;;;;;;6255333;23;20024;-80
2021/08/12 08:02:44;;;;;;;12.07;2.83;;;22.30;70.00;;;;;;6249812;22;20024;-79
2021/08/12 08:05:16;;;;;;;7.00;2.97;;;22.40;69.60;;;;;;6250705;23;20026;-79
2021/08/12 08:07:43;;;;;;;8.00;2.47;;;22.30;69.10;;;;;;6252443;22;20316;-78
2021/08/12 08:10:12;;;;;;;5.65;2.47;;;22.40;67.90;;;;;;6251636;23;20338;-78
2021/08/12 08:12:42;;;;;;;5.82;2.30;;;22.70;67.40;;;;;;6248332;23;20020;-79
2021/08/12 08:15:12;;;;;;;5.63;2.35;;;22.80;67.00;;;;;;6249361;23;20327;-78
2021/08/12 08:17:39;;;;;;;;;;;22.70;67.20;;;;;;6249781;23;20028;-79
2021/08/12 08:20:08;;;;;;;14.15;2.80;;;22.60;68.00;;;;;;6246980;22;19935;-79
2021/08/12 08:22:35;;;;;;;12.23;3.30;;;22.60;67.70;;;;;;6250076;22;20020;-79
2021/08/12 08:25:03;;;;;;;7.03;2.42;;;22.70;68.10;;;;;;6252393;23;20086;-78
2021/08/12 08:27:31;;;;;;;7.45;2.53;;;22.70;67.70;;;;;;6251820;22;20020;-79
2021/08/12 08:29:58;;;;;;;4.28;1.92;;;22.80;67.70;;;;;;6251629;22;20016;-79
2021/08/12 08:32:27;;;;;;;4.70;2.30;;;22.70;67.70;;;;;;6248075;22;20354;-79
2021/08/12 08:34:54;;;;;;;6.68;2.35;;;23.00;67.40;;;;;;6250568;23;20035;-78
2021/08/12 08:37:23;;;;;;;5.30;2.10;;;23.20;66.30;;;;;;6252524;22;20070;-79
2021/08/12 08:39:50;;;;;;;8.48;2.90;;;23.40;65.30;;;;;;6252345;22;20024;-78
2021/08/12 08:42:18;;;;;;;7.55;2.75;;;23.50;65.40;;;;;;6253056;22;20020;-79
2021/08/12 08:44:46;;;;;;;4.75;2.35;;;23.60;65.00;;;;;;6253252;22;20024;-79
2021/08/12 08:47:15;;;;;;;8.15;2.70;;;24.10;64.30;;;;;;6250574;23;20258;-79
2021/08/12 08:49:47;;;;;;;9.73;2.73;;;24.60;62.90;;;;;;6252913;22;20034;-79
2021/08/12 08:52:15;;;;;;;5.75;2.53;;;24.80;61.30;;;;;;6253713;23;20016;-79
2021/08/12 08:54:44;;;;;;;7.90;3.05;;;25.00;60.50;;;;;;6254253;23;20039;-78
2021/08/12 08:57:12;;;;;;;7.97;3.05;;;25.10;60.70;;;;;;6248310;22;20027;-78
2021/08/12 08:59:39;;;;;;;5.47;2.22;;;25.30;59.80;;;;;;6252306;23;20024;-79
2021/08/12 09:02:07;;;;;;;5.97;2.00;;;25.40;58.90;;;;;;6247525;22;20023;-79
2021/08/12 09:04:36;;;;;;;4.93;2.33;;;25.80;59.00;;;;;;6252201;23;20303;-78
2021/08/12 09:07:07;;;;;;;4.68;2.28;;;26.00;58.20;;;;;;6251929;23;20342;-78
2021/08/12 09:09:41;;;;;;;5.85;2.08;;;26.20;56.60;;;;;;6253534;23;20024;-79
2021/08/12 09:12:09;;;;;;;7.78;2.58;;;26.30;56.70;;;;;;6252542;23;20192;-78
2021/08/12 09:14:38;;;;;;;4.32;2.25;;;26.60;55.90;;;;;;6252466;22;20084;-78
2021/08/12 09:17:23;;;;;;;5.13;2.10;;;26.40;56.20;;;;;;6253750;22;20012;-79
2021/08/12 09:20:07;;;;;;;9.65;2.58;;;26.50;56.70;;;;;;6253188;22;20086;-79
2021/08/12 09:22:57;;;;;;;5.25;2.40;;;26.60;55.60;;;;;;6277006;22;20028;-80
2021/08/12 09:25:42;;;;;;;5.22;2.35;;;26.80;55.50;;;;;;6253937;23;20028;-79
2021/08/12 09:28:16;;;;;;;6.00;2.53;;;26.70;55.10;;;;;;6252483;22;20032;-79
2021/08/12 09:30:44;;;;;;;5.00;2.30;;;26.80;55.80;;;;;;6252594;23;20227;-78
2021/08/12 09:33:18;;;;;;;5.60;2.60;;;26.90;55.30;;;;;;6252258;23;20019;-79
2021/08/12 09:35:46;;;;;;;6.88;2.38;;;27.10;55.20;;;;;;6278873;22;20034;-79
2021/08/12 09:38:15;;;;;;;6.22;2.95;;;27.40;54.60;;;;;;6250121;23;20074;-79
2021/08/12 09:40:44;;;;;;;;;;;27.50;54.20;;;;;;6250947;23;20020;-79
2021/08/12 09:43:11;;;;;;;5.53;2.78;;;27.60;53.50;;;;;;6254120;22;19912;-79
2021/08/12 09:45:41;;;;;;;6.70;2.50;;;27.90;52.60;;;;;;6251690;23;20027;-79
2021/08/12 09:48:14;;;;;;;5.18;2.45;;;28.10;52.80;;;;;;6249999;22;20322;-79
2021/08/12 09:50:43;;;;;;;12.18;3.40;;;28.40;52.00;;;;;;6251451;23;20042;-79
2021/08/12 09:53:20;;;;;;;6.43;2.65;;;28.60;50.80;;;;;;6251478;23;20031;-78
2021/08/12 09:55:48;;;;;;;4.45;2.35;;;28.70;51.10;;;;;;6252619;22;20022;-79
2021/08/12 09:58:15;;;;;;;4.68;2.38;;;28.60;51.30;;;;;;6253117;23;20016;-79
2021/08/12 10:00:45;;;;;;;5.53;2.47;;;28.40;51.70;;;;;;6246720;22;20054;-78
2021/08/12 10:03:25;;;;;;;5.55;2.10;;;28.30;52.40;;;;;;6248853;23;20012;-79
2021/08/12 10:05:54;;;;;;;5.13;2.13;;;28.30;51.50;;;;;;6252213;23;20024;-80
2021/08/12 10:08:34;;;;;;;4.73;1.93;;;28.60;51.50;;;;;;6250301;23;20095;-79
2021/08/12 10:11:18;;;;;;;4.45;2.03;;;28.90;50.50;;;;;;6249999;22;20858;-79
2021/08/12 10:13:46;;;;;;;5.57;2.28;;;29.70;49.20;;;;;;6254688;22;20031;-78
2021/08/12 10:16:16;;;;;;;9.80;2.70;;;29.80;49.00;;;;;;6248709;23;20024;-78
2021/08/12 10:18:46;;;;;;;4.88;2.50;;;29.80;48.60;;;;;;6252843;23;20058;-79
2021/08/12 10:21:15;;;;;;;7.00;2.92;;;29.70;48.10;;;;;;6254430;23;20394;-79
2021/08/12 10:23:45;;;;;;;5.75;2.38;;;29.20;49.20;;;;;;6253917;23;20020;-79
2021/08/12 10:26:13;;;;;;;5.28;2.65;;;29.10;49.90;;;;;;6254659;23;20016;-79
2021/08/12 10:28:44;;;;;;;4.68;2.20;;;29.30;49.20;;;;;;6254304;23;20027;-79
2021/08/12 10:31:17;;;;;;;6.90;2.50;;;29.30;48.90;;;;;;6254288;23;20043;-79
2021/08/12 10:33:45;;;;;;;5.15;2.40;;;29.60;49.00;;;;;;6254100;22;20327;-79
2021/08/12 10:36:12;;;;;;;4.53;2.30;;;30.00;48.50;;;;;;6255512;23;20027;-79
2021/08/12 10:38:41;;;;;;;6.80;2.60;;;30.40;47.70;;;;;;6253202;23;20020;-78
2021/08/12 10:41:10;;;;;;;4.35;2.13;;;30.10;47.70;;;;;;6253857;23;20043;-78
2021/08/12 10:43:37;;;;;;;;;;;30.70;46.40;;;;;;6255733;22;20020;-78
2021/08/12 10:46:05;;;;;;;6.90;3.05;;;31.70;44.10;;;;;;6250226;23;19953;-79
2021/08/12 10:48:33;;;;;;;4.35;2.20;;;31.70;44.90;;;;;;6251142;23;20295;-79
2021/08/12 10:51:07;;;;;;;7.03;2.42;;;31.90;43.50;;;;;;6253695;22;20307;-79
2021/08/12 10:53:35;;;;;;;6.47;2.47;;;32.40;43.10;;;;;;6250940;23;20028;-78
2021/08/12 10:56:15;;;;;;;5.50;2.33;;;33.50;40.70;;;;;;6258070;23;20189;-79
2021/08/12 10:58:45;;;;;;;4.25;2.20;;;32.80;42.20;;;;;;6256650;23;20246;-79
2021/08/12 11:01:13;;;;;;;4.90;2.55;;;32.20;43.80;;;;;;6248403;23;20070;-79
2021/08/12 11:03:46;;;;;;;4.65;2.28;;;32.00;43.50;;;;;;6251633;22;20050;-79
2021/08/12 11:06:19;;;;;;;4.78;2.30;;;31.50;44.70;;;;;;6275464;22;20031;-79
2021/08/12 11:09:02;;;;;;;6.18;2.40;;;31.00;45.90;;;;;;6253300;23;20028;-79
2021/08/12 11:11:57;;;;;;;5.32;2.40;;;31.00;45.50;;;;;;6246593;23;20331;-79
2021/08/12 11:14:58;;;;;;;4.55;2.38;;;30.70;46.00;;;;;;6251458;23;20046;-79
2021/08/12 11:17:26;;;;;;;5.40;2.80;;;30.20;47.50;;;;;;6250783;23;20196;-79
2021/08/12 11:19:56;;;;;;;5.95;2.53;;;30.20;47.90;;;;;;6253526;22;20150;-80
2021/08/12 11:22:36;;;;;;;4.78;2.53;;;30.30;47.70;;;;;;6254091;23;20028;-78
2021/08/12 11:25:09;;;;;;;5.35;2.30;;;30.00;47.60;;;;;;6257379;23;20016;-79
2021/08/12 11:27:40;;;;;;;5.43;2.53;;;30.00;48.00;;;;;;6258950;22;20244;-80
2021/08/12 11:30:50;;;;;;;5.80;2.53;;;29.90;48.10;;;;;;6260044;22;20016;-80
2021/08/12 11:33:41;;;;;;;5.25;2.20;;;29.70;49.00;;;;;;6258488;23;20024;-79
2021/08/12 11:36:14;;;;;;;5.57;2.42;;;29.60;48.80;;;;;;6282944;22;20035;-78
2021/08/12 11:38:48;;;;;;;7.53;2.90;;;29.80;49.10;;;;;;6254741;23;20204;-78
2021/08/12 11:41:16;;;;;;;7.20;2.45;;;30.10;48.10;;;;;;6260135;22;20050;-79
2021/08/12 11:43:46;;;;;;;7.75;2.45;;;30.50;47.90;;;;;;6258368;22;20028;-80
2021/08/12 11:46:15;;;;;;;8.88;2.40;;;30.90;46.60;;;;;;6258309;23;20020;-80
2021/08/12 11:48:43;;;;;;;3.95;2.13;;;31.20;46.20;;;;;;6260026;22;20008;-80
2021/08/12 11:51:11;;;;;;;4.28;2.40;;;31.30;45.70;;;;;;6258010;23;20028;-80
2021/08/12 11:53:49;;;;;;;5.97;1.98;;;30.80;46.70;;;;;;6259398;23;20042;-79
2021/08/12 11:56:26;;;;;;;4.68;2.70;;;30.50;48.50;;;;;;6257638;23;20047;-79
2021/08/12 11:58:57;;;;;;;5.13;2.55;;;30.70;48.00;;;;;;6259256;23;20074;-79
2021/08/12 12:01:26;;;;;;;5.28;2.17;;;30.70;46.90;;;;;;6254174;23;20047;-79
2021/08/12 12:04:01;;;;;;;5.38;2.30;;;30.70;46.70;;;;;;6260368;23;20008;-80
2021/08/12 12:06:33;;;;;;;5.85;2.80;;;30.60;47.70;;;;;;6258155;23;20028;-79
2021/08/12 12:09:33;;;;;;;5.15;2.63;;;30.60;47.40;;;;;;6259662;23;20020;-79
2021/08/12 12:12:03;;;;;;;4.63;2.13;;;30.60;47.90;;;;;;6281051;22;20051;-80
2021/08/12 12:14:34;;;;;;;5.22;2.22;;;30.50;47.70;;;;;;6260779;23;20085;-80
2021/08/12 12:17:21;;;;;;;4.72;2.25;;;30.60;48.10;;;;;;6258791;23;20012;-80
2021/08/12 12:20:14;;;;;;;5.20;2.63;;;30.50;47.60;;;;;;6261303;23;20079;-80
2021/08/12 12:22:43;;;;;;;6.88;2.80;;;30.90;46.60;;;;;;6256993;23;20377;-79
2021/08/12 12:25:12;;;;;;;6.30;2.42;;;30.90;47.30;;;;;;6253557;23;20016;-79
2021/08/12 12:27:40;;;;;;;4.30;2.10;;;31.00;46.30;;;;;;6254035;23;20036;-79
2021/08/12 12:30:13;;;;;;;5.22;2.53;;;31.10;46.10;;;;;;6254611;22;20028;-79
2021/08/12 12:32:42;;;;;;;6.63;3.10;;;31.00;46.80;;;;;;6252173;22;20016;-78
2021/08/12 12:35:12;;;;;;;6.93;2.47;;;30.80;47.10;;;;;;6253328;23;20027;-80
2021/08/12 12:37:42;;;;;;;5.65;2.60;;;30.80;47.30;;;;;;6256777;23;20114;-80
2021/08/12 12:40:16;;;;;;;8.60;2.78;;;30.50;47.20;;;;;;6252060;23;20311;-80
2021/08/12 12:42:44;;;;;;;5.78;2.75;;;30.50;48.30;;;;;;6259460;22;20020;-79
2021/08/12 12:45:15;;;;;;;11.15;2.60;;;30.20;48.60;;;;;;6254772;22;20039;-79
2021/08/12 12:47:47;;;;;;;4.47;2.08;;;30.20;49.00;;;;;;6253562;23;20323;-78
2021/08/12 12:50:19;;;;;;;5.40;2.45;;;30.10;49.10;;;;;;6254568;23;20038;-79
2021/08/12 12:52:57;;;;;;;5.03;2.55;;;29.80;49.30;;;;;;6231510;23;20028;-78
2021/08/12 12:55:26;;;;;;;8.50;2.67;;;30.20;49.00;;;;;;6255671;23;20028;-79
2021/08/12 12:57:56;;;;;;;4.90;2.30;;;31.90;45.10;;;;;;6259010;23;20038;-79
2021/08/12 13:00:26;;;;;;;3.78;2.22;;;34.00;41.60;;;;;;6257570;23;20036;-78
2021/08/12 13:02:55;;;;;;;6.80;2.40;;;36.00;37.30;;;;;;6254234;23;20020;-81
2021/08/12 13:05:23;;;;;;;6.45;2.72;;;34.60;38.80;;;;;;6255998;23;20027;-79